sensor_id;sensor_type;location;lat;lon;timestamp;P1;durP1;ratioP1;P2;durP2;ratioP2
2558;SDS011;1289;53.488;10.006;2023-11-18T00:00:19;7.90;;;7.10;;
2558;SDS011;1289;53.488;10.006;2023-11-18T00:02:47;7.30;;;6.60;;
2558;SDS011;1289;53.488;10.006;2023-11-18T00:05:14;8.20;;;6.60;;
2558;SDS011;1289;53.488;10.006;2023-11-18T00:07:40;7.13;;;6.50;;
2558;SDS011;1289;53.488;10.006;2023-11-18T00:10:07;8.57;;;7.67;;
2558;SDS011;1289;53.488;10.006;2023-11-18T00:12:35;10.27;;;8.30;;
2558;SDS011;1289;53.488;10.006;2023-11-18T00:15:02;9.83;;;8.83;;
2558;SDS011;1289;53.488;10.006;2023-11-18T00:17:29;12.43;;;7.80;;
2558;SDS011;1289;53.488;10.006;2023-11-18T00:19:57;9.57;;;7.77;;
2558;SDS011;1289;53.488;10.006;2023-11-18T00:22:24;10.37;;;8.83;;
2558;SDS011;1289;53.488;10.006;2023-11-18T00:24:50;9.90;;;8.07;;
2558;SDS011;1289;53.488;10.006;2023-11-18T00:27:17;9.77;;;8.60;;
2558;SDS011;1289;53.488;10.006;2023-11-18T00:29:44;9.80;;;8.80;;
2558;SDS011;1289;53.488;10.006;2023-11-18T00:32:10;11.90;;;9.40;;
2558;SDS011;1289;53.488;10.006;2023-11-18T00:34:37;10.83;;;8.87;;
2558;SDS011;1289;53.488;10.006;2023-11-18T00:37:05;9.30;;;8.40;;
2558;SDS011;1289;53.488;10.006;2023-11-18T00:39:32;12.03;;;9.07;;
2558;SDS011;1289;53.488;10.006;2023-11-18T00:41:59;11.57;;;8.63;;
2558;SDS011;1289;53.488;10.006;2023-11-18T00:44:26;10.53;;;8.90;;
2558;SDS011;1289;53.488;10.006;2023-11-18T00:46:52;11.00;;;8.03;;
2558;SDS011;1289;53.488;10.006;2023-11-18T00:49:19;9.27;;;8.00;;
2558;SDS011;1289;53.488;10.006;2023-11-18T00:51:45;8.70;;;7.60;;
2558;SDS011;1289;53.488;10.006;2023-11-18T00:54:13;7.87;;;7.17;;
2558;SDS011;1289;53.488;10.006;2023-11-18T00:56:40;8.10;;;7.30;;
2558;SDS011;1289;53.488;10.006;2023-11-18T00:59:07;7.70;;;6.90;;
2558;SDS011;1289;53.488;10.006;2023-11-18T01:01:33;9.00;;;7.93;;
2558;SDS011;1289;53.488;10.006;2023-11-18T01:04:01;8.13;;;7.33;;
2558;SDS011;1289;53.488;10.006;2023-11-18T01:06:27;7.80;;;7.00;;
2558;SDS011;1289;53.488;10.006;2023-11-18T01:08:54;8.33;;;7.47;;
2558;SDS011;1289;53.488;10.006;2023-11-18T01:11:22;8.70;;;7.33;;
2558;SDS011;1289;53.488;10.006;2023-11-18T01:13:49;7.97;;;7.20;;
2558;SDS011;1289;53.488;10.006;2023-11-18T01:16:16;10.97;;;7.63;;
2558;SDS011;1289;53.488;10.006;2023-11-18T01:18:43;8.30;;;7.50;;
2558;SDS011;1289;53.488;10.006;2023-11-18T01:21:10;7.70;;;6.90;;
2558;SDS011;1289;53.488;10.006;2023-11-18T01:23:36;8.17;;;7.30;;
2558;SDS011;1289;53.488;10.006;2023-11-18T01:26:04;7.30;;;6.60;;
2558;SDS011;1289;53.488;10.006;2023-11-18T01:28:34;8.53;;;7.73;;
2558;SDS011;1289;53.488;10.006;2023-11-18T01:31:02;7.67;;;6.97;;
2558;SDS011;1289;53.488;10.006;2023-11-18T01:33:30;8.40;;;7.50;;
2558;SDS011;1289;53.488;10.006;2023-11-18T01:35:57;7.30;;;6.60;;
2558;SDS011;1289;53.488;10.006;2023-11-18T01:38:24;8.67;;;7.83;;
2558;SDS011;1289;53.488;10.006;2023-11-18T01:40:51;11.20;;;7.50;;
2558;SDS011;1289;53.488;10.006;2023-11-18T01:43:18;7.67;;;6.97;;
2558;SDS011;1289;53.488;10.006;2023-11-18T01:45:48;8.73;;;7.80;;
2558;SDS011;1289;53.488;10.006;2023-11-18T01:48:15;8.10;;;7.33;;
2558;SDS011;1289;53.488;10.006;2023-11-18T01:50:42;8.60;;;7.80;;
2558;SDS011;1289;53.488;10.006;2023-11-18T01:53:10;12.80;;;9.07;;
2558;SDS011;1289;53.488;10.006;2023-11-18T01:55:39;7.53;;;6.83;;
2558;SDS011;1289;53.488;10.006;2023-11-18T01:58:05;8.67;;;7.77;;
2558;SDS011;1289;53.488;10.006;2023-11-18T02:00:35;8.93;;;7.60;;
2558;SDS011;1289;53.488;10.006;2023-11-18T02:03:05;9.10;;;8.20;;
2558;SDS011;1289;53.488;10.006;2023-11-18T02:05:31;8.90;;;8.10;;
2558;SDS011;1289;53.488;10.006;2023-11-18T02:08:00;9.20;;;8.20;;
2558;SDS011;1289;53.488;10.006;2023-11-18T02:10:30;8.27;;;7.47;;
2558;SDS011;1289;53.488;10.006;2023-11-18T02:12:57;10.73;;;7.03;;
2558;SDS011;1289;53.488;10.006;2023-11-18T02:15:31;8.57;;;7.70;;
2558;SDS011;1289;53.488;10.006;2023-11-18T02:18:02;8.60;;;7.70;;
2558;SDS011;1289;53.488;10.006;2023-11-18T02:20:30;9.60;;;8.13;;
2558;SDS011;1289;53.488;10.006;2023-11-18T02:22:56;9.93;;;8.17;;
2558;SDS011;1289;53.488;10.006;2023-11-18T02:25:24;9.77;;;8.33;;
2558;SDS011;1289;53.488;10.006;2023-11-18T02:27:53;8.47;;;7.67;;
2558;SDS011;1289;53.488;10.006;2023-11-18T02:30:20;9.67;;;7.87;;
2558;SDS011;1289;53.488;10.006;2023-11-18T02:32:51;9.00;;;7.50;;
2558;SDS011;1289;53.488;10.006;2023-11-18T02:35:23;9.23;;;8.20;;
2558;SDS011;1289;53.488;10.006;2023-11-18T02:37:52;11.77;;;8.20;;
2558;SDS011;1289;53.488;10.006;2023-11-18T02:40:23;8.53;;;7.63;;
2558;SDS011;1289;53.488;10.006;2023-11-18T02:42:57;9.80;;;7.97;;
2558;SDS011;1289;53.488;10.006;2023-11-18T02:45:25;9.77;;;8.30;;
2558;SDS011;1289;53.488;10.006;2023-11-18T02:47:52;12.13;;;9.80;;
2558;SDS011;1289;53.488;10.006;2023-11-18T02:50:22;16.30;;;9.30;;
2558;SDS011;1289;53.488;10.006;2023-11-18T02:52:49;11.27;;;9.53;;
2558;SDS011;1289;53.488;10.006;2023-11-18T02:55:15;10.47;;;9.37;;
2558;SDS011;1289;53.488;10.006;2023-11-18T02:57:42;11.90;;;9.60;;
2558;SDS011;1289;53.488;10.006;2023-11-18T03:00:10;10.33;;;8.43;;
2558;SDS011;1289;53.488;10.006;2023-11-18T03:02:43;9.17;;;8.27;;
2558;SDS011;1289;53.488;10.006;2023-11-18T03:05:11;8.93;;;8.03;;
2558;SDS011;1289;53.488;10.006;2023-11-18T03:07:38;8.60;;;7.73;;
2558;SDS011;1289;53.488;10.006;2023-11-18T03:10:05;9.90;;;8.60;;
2558;SDS011;1289;53.488;10.006;2023-11-18T03:12:36;9.87;;;8.37;;
2558;SDS011;1289;53.488;10.006;2023-11-18T03:15:03;8.90;;;8.00;;
2558;SDS011;1289;53.488;10.006;2023-11-18T03:17:32;9.00;;;8.10;;
2558;SDS011;1289;53.488;10.006;2023-11-18T03:19:58;8.37;;;7.53;;
2558;SDS011;1289;53.488;10.006;2023-11-18T03:22:25;10.13;;;7.57;;
2558;SDS011;1289;53.488;10.006;2023-11-18T03:24:52;12.33;;;8.33;;
2558;SDS011;1289;53.488;10.006;2023-11-18T03:27:18;9.57;;;8.53;;
2558;SDS011;1289;53.488;10.006;2023-11-18T03:32:16;11.20;;;8.10;;
2558;SDS011;1289;53.488;10.006;2023-11-18T03:34:44;9.00;;;8.10;;
2558;SDS011;1289;53.488;10.006;2023-11-18T03:37:10;9.50;;;7.93;;
2558;SDS011;1289;53.488;10.006;2023-11-18T03:39:37;9.60;;;8.70;;
2558;SDS011;1289;53.488;10.006;2023-11-18T03:42:03;9.33;;;8.37;;
2558;SDS011;1289;53.488;10.006;2023-11-18T03:44:30;8.10;;;7.20;;
2558;SDS011;1289;53.488;10.006;2023-11-18T03:46:57;9.23;;;7.97;;
2558;SDS011;1289;53.488;10.006;2023-11-18T03:49:24;9.07;;;8.10;;
2558;SDS011;1289;53.488;10.006;2023-11-18T03:51:52;11.03;;;8.60;;
2558;SDS011;1289;53.488;10.006;2023-11-18T03:54:19;11.23;;;8.77;;
2558;SDS011;1289;53.488;10.006;2023-11-18T03:56:46;8.83;;;7.93;;
2558;SDS011;1289;53.488;10.006;2023-11-18T03:59:13;10.70;;;8.17;;
2558;SDS011;1289;53.488;10.006;2023-11-18T04:01:40;12.90;;;8.07;;
2558;SDS011;1289;53.488;10.006;2023-11-18T04:04:07;8.60;;;7.80;;
2558;SDS011;1289;53.488;10.006;2023-11-18T04:06:33;10.50;;;8.20;;
2558;SDS011;1289;53.488;10.006;2023-11-18T04:09:01;9.97;;;8.63;;
2558;SDS011;1289;53.488;10.006;2023-11-18T04:11:31;7.93;;;7.00;;
2558;SDS011;1289;53.488;10.006;2023-11-18T04:13:57;9.80;;;8.80;;
2558;SDS011;1289;53.488;10.006;2023-11-18T04:16:24;9.60;;;8.60;;
2558;SDS011;1289;53.488;10.006;2023-11-18T04:18:50;8.93;;;8.07;;
2558;SDS011;1289;53.488;10.006;2023-11-18T04:21:17;9.20;;;8.20;;
2558;SDS011;1289;53.488;10.006;2023-11-18T04:23:44;13.63;;;7.57;;
2558;SDS011;1289;53.488;10.006;2023-11-18T04:26:13;8.17;;;7.30;;
2558;SDS011;1289;53.488;10.006;2023-11-18T04:28:40;8.30;;;7.50;;
2558;SDS011;1289;53.488;10.006;2023-11-18T04:31:06;10.37;;;8.27;;
2558;SDS011;1289;53.488;10.006;2023-11-18T04:33:33;8.13;;;7.33;;
2558;SDS011;1289;53.488;10.006;2023-11-18T04:35:59;9.30;;;8.13;;
2558;SDS011;1289;53.488;10.006;2023-11-18T04:38:26;9.13;;;8.03;;
2558;SDS011;1289;53.488;10.006;2023-11-18T04:40:53;9.70;;;8.23;;
2558;SDS011;1289;53.488;10.006;2023-11-18T04:43:21;9.20;;;8.03;;
2558;SDS011;1289;53.488;10.006;2023-11-18T04:45:48;9.33;;;8.27;;
2558;SDS011;1289;53.488;10.006;2023-11-18T04:48:15;9.13;;;7.93;;
2558;SDS011;1289;53.488;10.006;2023-11-18T04:50:42;8.77;;;7.97;;
2558;SDS011;1289;53.488;10.006;2023-11-18T04:53:09;8.93;;;8.03;;
2558;SDS011;1289;53.488;10.006;2023-11-18T04:55:36;9.03;;;8.13;;
2558;SDS011;1289;53.488;10.006;2023-11-18T04:58:02;8.57;;;7.77;;
2558;SDS011;1289;53.488;10.006;2023-11-18T05:00:32;10.17;;;8.43;;
2558;SDS011;1289;53.488;10.006;2023-11-18T05:02:59;10.13;;;7.80;;
2558;SDS011;1289;53.488;10.006;2023-11-18T05:05:25;8.13;;;7.33;;
2558;SDS011;1289;53.488;10.006;2023-11-18T05:07:52;9.70;;;7.50;;
2558;SDS011;1289;53.488;10.006;2023-11-18T05:10:18;10.57;;;8.40;;
2558;SDS011;1289;53.488;10.006;2023-11-18T05:12:45;9.97;;;7.80;;
2558;SDS011;1289;53.488;10.006;2023-11-18T05:15:20;7.93;;;7.17;;
2558;SDS011;1289;53.488;10.006;2023-11-18T05:17:51;9.93;;;8.00;;
2558;SDS011;1289;53.488;10.006;2023-11-18T05:20:17;7.73;;;7.00;;
2558;SDS011;1289;53.488;10.006;2023-11-18T05:22:44;8.83;;;7.93;;
2558;SDS011;1289;53.488;10.006;2023-11-18T05:25:11;10.27;;;7.87;;
2558;SDS011;1289;53.488;10.006;2023-11-18T05:27:37;8.40;;;7.50;;
2558;SDS011;1289;53.488;10.006;2023-11-18T05:30:05;10.00;;;8.20;;
2558;SDS011;1289;53.488;10.006;2023-11-18T05:32:33;9.63;;;8.20;;
2558;SDS011;1289;53.488;10.006;2023-11-18T05:35:01;9.13;;;8.20;;
2558;SDS011;1289;53.488;10.006;2023-11-18T05:37:30;9.50;;;7.93;;
2558;SDS011;1289;53.488;10.006;2023-11-18T05:40:00;9.50;;;8.47;;
2558;SDS011;1289;53.488;10.006;2023-11-18T05:42:31;8.57;;;7.67;;
2558;SDS011;1289;53.488;10.006;2023-11-18T05:44:58;10.90;;;9.00;;
2558;SDS011;1289;53.488;10.006;2023-11-18T05:47:25;12.33;;;7.90;;
2558;SDS011;1289;53.488;10.006;2023-11-18T05:49:51;10.40;;;8.10;;
2558;SDS011;1289;53.488;10.006;2023-11-18T05:52:19;11.30;;;9.03;;
2558;SDS011;1289;53.488;10.006;2023-11-18T05:54:46;9.80;;;8.07;;
2558;SDS011;1289;53.488;10.006;2023-11-18T05:57:13;8.20;;;7.30;;
2558;SDS011;1289;53.488;10.006;2023-11-18T05:59:39;11.30;;;7.97;;
2558;SDS011;1289;53.488;10.006;2023-11-18T06:02:06;8.73;;;7.83;;
2558;SDS011;1289;53.488;10.006;2023-11-18T06:04:33;8.30;;;7.50;;
2558;SDS011;1289;53.488;10.006;2023-11-18T06:07:00;9.93;;;8.90;;
2558;SDS011;1289;53.488;10.006;2023-11-18T06:09:29;9.60;;;8.57;;
2558;SDS011;1289;53.488;10.006;2023-11-18T06:11:55;10.43;;;8.17;;
2558;SDS011;1289;53.488;10.006;2023-11-18T06:14:22;11.20;;;8.20;;
2558;SDS011;1289;53.488;10.006;2023-11-18T06:16:49;9.17;;;8.27;;
2558;SDS011;1289;53.488;10.006;2023-11-18T06:19:16;11.40;;;8.10;;
2558;SDS011;1289;53.488;10.006;2023-11-18T06:21:42;8.23;;;7.43;;
2558;SDS011;1289;53.488;10.006;2023-11-18T06:24:09;12.93;;;8.40;;
2558;SDS011;1289;53.488;10.006;2023-11-18T06:26:39;13.30;;;8.70;;
2558;SDS011;1289;53.488;10.006;2023-11-18T06:29:06;9.80;;;7.90;;
2558;SDS011;1289;53.488;10.006;2023-11-18T06:31:33;10.93;;;8.80;;
2558;SDS011;1289;53.488;10.006;2023-11-18T06:33:58;10.03;;;9.03;;
2558;SDS011;1289;53.488;10.006;2023-11-18T06:36:27;9.53;;;8.47;;
2558;SDS011;1289;53.488;10.006;2023-11-18T06:38:56;11.40;;;9.10;;
2558;SDS011;1289;53.488;10.006;2023-11-18T06:41:24;10.30;;;9.17;;
2558;SDS011;1289;53.488;10.006;2023-11-18T06:43:52;9.27;;;8.00;;
2558;SDS011;1289;53.488;10.006;2023-11-18T06:46:26;10.60;;;9.10;;
2558;SDS011;1289;53.488;10.006;2023-11-18T06:48:56;11.00;;;9.90;;
2558;SDS011;1289;53.488;10.006;2023-11-18T06:51:24;10.40;;;9.10;;
2558;SDS011;1289;53.488;10.006;2023-11-18T06:53:52;14.33;;;10.17;;
2558;SDS011;1289;53.488;10.006;2023-11-18T06:56:20;10.80;;;9.07;;
2558;SDS011;1289;53.488;10.006;2023-11-18T06:58:46;11.30;;;9.77;;
2558;SDS011;1289;53.488;10.006;2023-11-18T07:01:14;12.40;;;9.80;;
2558;SDS011;1289;53.488;10.006;2023-11-18T07:03:41;11.73;;;10.57;;
2558;SDS011;1289;53.488;10.006;2023-11-18T07:06:08;15.30;;;10.67;;
2558;SDS011;1289;53.488;10.006;2023-11-18T07:08:35;12.27;;;10.23;;
2558;SDS011;1289;53.488;10.006;2023-11-18T07:11:02;13.40;;;10.43;;
2558;SDS011;1289;53.488;10.006;2023-11-18T07:13:31;14.20;;;9.43;;
2558;SDS011;1289;53.488;10.006;2023-11-18T07:15:59;11.27;;;10.07;;
2558;SDS011;1289;53.488;10.006;2023-11-18T07:18:29;11.30;;;10.10;;
2558;SDS011;1289;53.488;10.006;2023-11-18T07:20:56;13.50;;;11.30;;
2558;SDS011;1289;53.488;10.006;2023-11-18T07:23:24;12.73;;;10.37;;
2558;SDS011;1289;53.488;10.006;2023-11-18T07:25:51;12.90;;;10.43;;
2558;SDS011;1289;53.488;10.006;2023-11-18T07:28:18;11.23;;;9.90;;
2558;SDS011;1289;53.488;10.006;2023-11-18T07:30:45;12.90;;;11.10;;
2558;SDS011;1289;53.488;10.006;2023-11-18T07:33:12;10.60;;;9.47;;
2558;SDS011;1289;53.488;10.006;2023-11-18T07:35:40;13.60;;;10.03;;
2558;SDS011;1289;53.488;10.006;2023-11-18T07:38:07;12.43;;;11.07;;
2558;SDS011;1289;53.488;10.006;2023-11-18T07:40:34;13.57;;;10.90;;
2558;SDS011;1289;53.488;10.006;2023-11-18T07:43:02;15.17;;;12.03;;
2558;SDS011;1289;53.488;10.006;2023-11-18T07:45:34;15.37;;;12.17;;
2558;SDS011;1289;53.488;10.006;2023-11-18T07:48:02;14.73;;;13.10;;
2558;SDS011;1289;53.488;10.006;2023-11-18T07:50:31;12.90;;;11.60;;
2558;SDS011;1289;53.488;10.006;2023-11-18T07:52:59;10.60;;;9.60;;
2558;SDS011;1289;53.488;10.006;2023-11-18T07:55:26;11.83;;;9.90;;
2558;SDS011;1289;53.488;10.006;2023-11-18T07:57:52;9.80;;;8.80;;
2558;SDS011;1289;53.488;10.006;2023-11-18T08:00:19;9.10;;;7.73;;
2558;SDS011;1289;53.488;10.006;2023-11-18T08:02:46;11.27;;;8.17;;
2558;SDS011;1289;53.488;10.006;2023-11-18T08:05:12;10.80;;;8.70;;
2558;SDS011;1289;53.488;10.006;2023-11-18T08:07:39;9.90;;;8.80;;
2558;SDS011;1289;53.488;10.006;2023-11-18T08:10:08;12.10;;;8.80;;
2558;SDS011;1289;53.488;10.006;2023-11-18T08:12:38;10.30;;;9.30;;
2558;SDS011;1289;53.488;10.006;2023-11-18T08:15:05;9.57;;;8.27;;
2558;SDS011;1289;53.488;10.006;2023-11-18T08:17:34;10.33;;;9.13;;
2558;SDS011;1289;53.488;10.006;2023-11-18T08:20:01;8.70;;;7.80;;
2558;SDS011;1289;53.488;10.006;2023-11-18T08:22:32;10.00;;;7.80;;
2558;SDS011;1289;53.488;10.006;2023-11-18T08:24:59;10.47;;;8.20;;
2558;SDS011;1289;53.488;10.006;2023-11-18T08:27:27;11.70;;;8.67;;
2558;SDS011;1289;53.488;10.006;2023-11-18T08:29:54;12.87;;;8.70;;
2558;SDS011;1289;53.488;10.006;2023-11-18T08:32:20;9.80;;;8.43;;
2558;SDS011;1289;53.488;10.006;2023-11-18T08:34:50;8.90;;;8.00;;
2558;SDS011;1289;53.488;10.006;2023-11-18T08:37:17;8.97;;;8.07;;
2558;SDS011;1289;53.488;10.006;2023-11-18T08:39:44;9.30;;;8.33;;
2558;SDS011;1289;53.488;10.006;2023-11-18T08:42:10;10.13;;;8.97;;
2558;SDS011;1289;53.488;10.006;2023-11-18T08:44:40;10.70;;;9.60;;
2558;SDS011;1289;53.488;10.006;2023-11-18T08:47:08;10.47;;;8.90;;
2558;SDS011;1289;53.488;10.006;2023-11-18T08:49:37;12.43;;;10.20;;
2558;SDS011;1289;53.488;10.006;2023-11-18T08:52:11;11.60;;;9.70;;
2558;SDS011;1289;53.488;10.006;2023-11-18T08:54:38;11.27;;;9.93;;
2558;SDS011;1289;53.488;10.006;2023-11-18T08:57:24;9.83;;;8.80;;
2558;SDS011;1289;53.488;10.006;2023-11-18T08:59:52;10.27;;;8.63;;
2558;SDS011;1289;53.488;10.006;2023-11-18T09:02:19;11.47;;;8.20;;
2558;SDS011;1289;53.488;10.006;2023-11-18T09:04:48;10.30;;;7.93;;
2558;SDS011;1289;53.488;10.006;2023-11-18T09:07:15;9.40;;;7.70;;
2558;SDS011;1289;53.488;10.006;2023-11-18T09:09:41;8.13;;;6.80;;
2558;SDS011;1289;53.488;10.006;2023-11-18T09:12:11;7.97;;;7.17;;
2558;SDS011;1289;53.488;10.006;2023-11-18T09:14:39;8.13;;;7.30;;
2558;SDS011;1289;53.488;10.006;2023-11-18T09:17:09;7.70;;;6.90;;
2558;SDS011;1289;53.488;10.006;2023-11-18T09:19:35;8.80;;;7.90;;
2558;SDS011;1289;53.488;10.006;2023-11-18T09:22:02;9.60;;;8.20;;
2558;SDS011;1289;53.488;10.006;2023-11-18T09:24:30;9.87;;;8.00;;
2558;SDS011;1289;53.488;10.006;2023-11-18T09:26:58;8.30;;;7.50;;
2558;SDS011;1289;53.488;10.006;2023-11-18T09:29:25;8.70;;;7.90;;
2558;SDS011;1289;53.488;10.006;2023-11-18T09:31:51;11.30;;;8.13;;
2558;SDS011;1289;53.488;10.006;2023-11-18T09:34:20;9.60;;;8.60;;
2558;SDS011;1289;53.488;10.006;2023-11-18T09:36:52;9.43;;;7.73;;
2558;SDS011;1289;53.488;10.006;2023-11-18T09:39:19;10.17;;;9.03;;
2558;SDS011;1289;53.488;10.006;2023-11-18T09:42:03;8.70;;;7.67;;
2558;SDS011;1289;53.488;10.006;2023-11-18T09:44:34;8.87;;;7.93;;
2558;SDS011;1289;53.488;10.006;2023-11-18T09:47:03;8.90;;;8.00;;
2558;SDS011;1289;53.488;10.006;2023-11-18T09:49:37;7.70;;;6.90;;
2558;SDS011;1289;53.488;10.006;2023-11-18T09:52:06;8.00;;;7.20;;
2558;SDS011;1289;53.488;10.006;2023-11-18T09:54:34;8.03;;;7.23;;
2558;SDS011;1289;53.488;10.006;2023-11-18T09:57:07;8.83;;;8.03;;
2558;SDS011;1289;53.488;10.006;2023-11-18T09:59:37;7.93;;;7.13;;
2558;SDS011;1289;53.488;10.006;2023-11-18T10:02:10;9.87;;;8.30;;
2558;SDS011;1289;53.488;10.006;2023-11-18T10:04:38;9.63;;;8.53;;
2558;SDS011;1289;53.488;10.006;2023-11-18T10:07:05;9.60;;;8.60;;
2558;SDS011;1289;53.488;10.006;2023-11-18T10:09:35;8.60;;;7.70;;
2558;SDS011;1289;53.488;10.006;2023-11-18T10:12:04;7.90;;;7.10;;
2558;SDS011;1289;53.488;10.006;2023-11-18T10:14:32;8.37;;;6.93;;
2558;SDS011;1289;53.488;10.006;2023-11-18T10:17:02;7.30;;;6.60;;
2558;SDS011;1289;53.488;10.006;2023-11-18T10:22:21;7.50;;;6.70;;
2558;SDS011;1289;53.488;10.006;2023-11-18T10:24:48;7.57;;;6.80;;
2558;SDS011;1289;53.488;10.006;2023-11-18T10:27:17;7.27;;;6.30;;
2558;SDS011;1289;53.488;10.006;2023-11-18T10:29:44;9.00;;;6.67;;
2558;SDS011;1289;53.488;10.006;2023-11-18T10:32:12;7.90;;;6.20;;
2558;SDS011;1289;53.488;10.006;2023-11-18T10:34:44;7.27;;;6.57;;
2558;SDS011;1289;53.488;10.006;2023-11-18T10:37:12;6.93;;;6.23;;
2558;SDS011;1289;53.488;10.006;2023-11-18T10:39:41;7.33;;;6.63;;
2558;SDS011;1289;53.488;10.006;2023-11-18T10:42:12;6.67;;;6.07;;
2558;SDS011;1289;53.488;10.006;2023-11-18T10:44:49;8.07;;;6.40;;
2558;SDS011;1289;53.488;10.006;2023-11-18T10:47:23;5.97;;;5.47;;
2558;SDS011;1289;53.488;10.006;2023-11-18T10:49:51;7.37;;;6.00;;
2558;SDS011;1289;53.488;10.006;2023-11-18T10:52:19;6.47;;;5.87;;
2558;SDS011;1289;53.488;10.006;2023-11-18T10:54:52;6.17;;;5.67;;
2558;SDS011;1289;53.488;10.006;2023-11-18T10:57:20;7.83;;;6.03;;
2558;SDS011;1289;53.488;10.006;2023-11-18T10:59:59;6.03;;;5.53;;
2558;SDS011;1289;53.488;10.006;2023-11-18T11:02:29;6.70;;;6.00;;
2558;SDS011;1289;53.488;10.006;2023-11-18T11:05:00;6.40;;;5.80;;
2558;SDS011;1289;53.488;10.006;2023-11-18T11:07:28;6.00;;;5.50;;
2558;SDS011;1289;53.488;10.006;2023-11-18T11:09:55;6.77;;;5.30;;
2558;SDS011;1289;53.488;10.006;2023-11-18T11:12:22;6.07;;;5.57;;
2558;SDS011;1289;53.488;10.006;2023-11-18T11:14:52;5.40;;;4.90;;
2558;SDS011;1289;53.488;10.006;2023-11-18T11:17:25;5.67;;;5.17;;
2558;SDS011;1289;53.488;10.006;2023-11-18T11:19:55;5.50;;;5.00;;
2558;SDS011;1289;53.488;10.006;2023-11-18T11:22:38;5.60;;;5.10;;
2558;SDS011;1289;53.488;10.006;2023-11-18T11:25:08;6.13;;;5.63;;
2558;SDS011;1289;53.488;10.006;2023-11-18T11:27:50;5.30;;;4.80;;
2558;SDS011;1289;53.488;10.006;2023-11-18T11:30:28;5.70;;;5.20;;
2558;SDS011;1289;53.488;10.006;2023-11-18T11:32:59;5.67;;;5.17;;
2558;SDS011;1289;53.488;10.006;2023-11-18T11:35:30;6.73;;;6.10;;
2558;SDS011;1289;53.488;10.006;2023-11-18T11:37:59;5.60;;;5.13;;
2558;SDS011;1289;53.488;10.006;2023-11-18T11:40:34;5.40;;;4.90;;
2558;SDS011;1289;53.488;10.006;2023-11-18T11:43:02;6.63;;;5.87;;
2558;SDS011;1289;53.488;10.006;2023-11-18T11:45:34;6.80;;;6.20;;
2558;SDS011;1289;53.488;10.006;2023-11-18T11:48:02;6.03;;;5.53;;
2558;SDS011;1289;53.488;10.006;2023-11-18T11:50:43;6.37;;;5.83;;
2558;SDS011;1289;53.488;10.006;2023-11-18T11:53:23;5.93;;;5.50;;
2558;SDS011;1289;53.488;10.006;2023-11-18T11:55:53;6.47;;;5.87;;
2558;SDS011;1289;53.488;10.006;2023-11-18T11:58:30;5.63;;;5.13;;
2558;SDS011;1289;53.488;10.006;2023-11-18T12:00:58;5.47;;;4.97;;
2558;SDS011;1289;53.488;10.006;2023-11-18T12:03:26;5.73;;;5.23;;
2558;SDS011;1289;53.488;10.006;2023-11-18T12:05:54;5.80;;;5.30;;
2558;SDS011;1289;53.488;10.006;2023-11-18T12:08:23;5.47;;;4.90;;
2558;SDS011;1289;53.488;10.006;2023-11-18T12:10:50;5.80;;;5.03;;
2558;SDS011;1289;53.488;10.006;2023-11-18T12:13:18;5.93;;;5.33;;
2558;SDS011;1289;53.488;10.006;2023-11-18T12:15:49;5.67;;;5.20;;
2558;SDS011;1289;53.488;10.006;2023-11-18T12:18:22;5.60;;;5.10;;
2558;SDS011;1289;53.488;10.006;2023-11-18T12:20:49;6.00;;;5.50;;
2558;SDS011;1289;53.488;10.006;2023-11-18T12:23:19;7.27;;;5.07;;
2558;SDS011;1289;53.488;10.006;2023-11-18T12:25:49;9.27;;;5.30;;
2558;SDS011;1289;53.488;10.006;2023-11-18T12:28:20;5.53;;;5.03;;
2558;SDS011;1289;53.488;10.006;2023-11-18T12:30:52;7.07;;;5.27;;
2558;SDS011;1289;53.488;10.006;2023-11-18T12:33:21;5.90;;;5.30;;
2558;SDS011;1289;53.488;10.006;2023-11-18T12:35:58;5.80;;;5.30;;
2558;SDS011;1289;53.488;10.006;2023-11-18T12:38:45;9.47;;;5.03;;
2558;SDS011;1289;53.488;10.006;2023-11-18T12:41:40;5.10;;;4.60;;
2558;SDS011;1289;53.488;10.006;2023-11-18T12:44:10;5.20;;;4.70;;
2558;SDS011;1289;53.488;10.006;2023-11-18T12:46:52;5.80;;;5.30;;
2558;SDS011;1289;53.488;10.006;2023-11-18T12:49:20;5.90;;;5.30;;
2558;SDS011;1289;53.488;10.006;2023-11-18T12:51:49;5.17;;;4.77;;
2558;SDS011;1289;53.488;10.006;2023-11-18T12:54:16;5.20;;;4.80;;
2558;SDS011;1289;53.488;10.006;2023-11-18T12:56:46;4.87;;;4.47;;
2558;SDS011;1289;53.488;10.006;2023-11-18T12:59:14;5.10;;;4.60;;
2558;SDS011;1289;53.488;10.006;2023-11-18T13:01:43;4.63;;;4.33;;
2558;SDS011;1289;53.488;10.006;2023-11-18T13:04:16;4.90;;;4.50;;
2558;SDS011;1289;53.488;10.006;2023-11-18T13:06:43;4.80;;;4.40;;
2558;SDS011;1289;53.488;10.006;2023-11-18T13:09:09;4.93;;;4.53;;
2558;SDS011;1289;53.488;10.006;2023-11-18T13:11:36;8.67;;;5.30;;
2558;SDS011;1289;53.488;10.006;2023-11-18T13:14:08;5.43;;;5.03;;
2558;SDS011;1289;53.488;10.006;2023-11-18T13:16:37;5.57;;;5.07;;
2558;SDS011;1289;53.488;10.006;2023-11-18T13:19:03;5.80;;;5.30;;
2558;SDS011;1289;53.488;10.006;2023-11-18T13:21:30;7.33;;;5.27;;
2558;SDS011;1289;53.488;10.006;2023-11-18T13:23:57;5.90;;;5.40;;
2558;SDS011;1289;53.488;10.006;2023-11-18T13:26:23;5.90;;;5.40;;
2558;SDS011;1289;53.488;10.006;2023-11-18T13:28:50;5.97;;;5.47;;
2558;SDS011;1289;53.488;10.006;2023-11-18T13:31:18;5.67;;;5.17;;
2558;SDS011;1289;53.488;10.006;2023-11-18T13:33:46;6.00;;;5.37;;
2558;SDS011;1289;53.488;10.006;2023-11-18T13:36:14;6.77;;;6.17;;
2558;SDS011;1289;53.488;10.006;2023-11-18T13:38:41;5.93;;;5.40;;
2558;SDS011;1289;53.488;10.006;2023-11-18T13:41:09;6.80;;;6.20;;
2558;SDS011;1289;53.488;10.006;2023-11-18T13:43:41;6.10;;;5.50;;
2558;SDS011;1289;53.488;10.006;2023-11-18T13:46:10;5.80;;;5.30;;
2558;SDS011;1289;53.488;10.006;2023-11-18T13:48:40;5.43;;;5.00;;
2558;SDS011;1289;53.488;10.006;2023-11-18T13:51:07;6.53;;;5.80;;
2558;SDS011;1289;53.488;10.006;2023-11-18T13:53:38;6.10;;;5.60;;
2558;SDS011;1289;53.488;10.006;2023-11-18T13:56:06;5.97;;;5.47;;
2558;SDS011;1289;53.488;10.006;2023-11-18T13:58:34;8.63;;;5.63;;
2558;SDS011;1289;53.488;10.006;2023-11-18T14:01:04;6.43;;;5.93;;
2558;SDS011;1289;53.488;10.006;2023-11-18T14:03:31;8.40;;;6.00;;
2558;SDS011;1289;53.488;10.006;2023-11-18T14:05:59;7.03;;;6.37;;
2558;SDS011;1289;53.488;10.006;2023-11-18T14:08:27;6.77;;;5.90;;
2558;SDS011;1289;53.488;10.006;2023-11-18T14:10:53;9.20;;;6.10;;
2558;SDS011;1289;53.488;10.006;2023-11-18T14:13:20;7.30;;;6.60;;
2558;SDS011;1289;53.488;10.006;2023-11-18T14:15:47;7.60;;;7.00;;
2558;SDS011;1289;53.488;10.006;2023-11-18T14:18:21;7.53;;;6.83;;
2558;SDS011;1289;53.488;10.006;2023-11-18T14:20:47;8.37;;;7.17;;
2558;SDS011;1289;53.488;10.006;2023-11-18T14:23:16;7.83;;;7.13;;
2558;SDS011;1289;53.488;10.006;2023-11-18T14:25:43;7.80;;;7.10;;
2558;SDS011;1289;53.488;10.006;2023-11-18T14:28:10;9.90;;;8.20;;
2558;SDS011;1289;53.488;10.006;2023-11-18T14:30:38;10.97;;;8.23;;
2558;SDS011;1289;53.488;10.006;2023-11-18T14:33:05;8.97;;;8.07;;
2558;SDS011;1289;53.488;10.006;2023-11-18T14:35:32;10.73;;;8.63;;
2558;SDS011;1289;53.488;10.006;2023-11-18T14:37:59;9.53;;;7.07;;
2558;SDS011;1289;53.488;10.006;2023-11-18T14:40:27;9.20;;;7.53;;
2558;SDS011;1289;53.488;10.006;2023-11-18T14:42:54;8.50;;;7.40;;
2558;SDS011;1289;53.488;10.006;2023-11-18T14:45:22;8.40;;;7.43;;
2558;SDS011;1289;53.488;10.006;2023-11-18T14:47:48;8.23;;;7.33;;
2558;SDS011;1289;53.488;10.006;2023-11-18T14:50:18;8.00;;;7.20;;
2558;SDS011;1289;53.488;10.006;2023-11-18T14:52:45;8.33;;;7.53;;
2558;SDS011;1289;53.488;10.006;2023-11-18T14:55:13;8.90;;;8.10;;
2558;SDS011;1289;53.488;10.006;2023-11-18T14:57:44;11.70;;;9.77;;
2558;SDS011;1289;53.488;10.006;2023-11-18T15:00:12;9.90;;;8.37;;
2558;SDS011;1289;53.488;10.006;2023-11-18T15:02:45;13.03;;;8.80;;
2558;SDS011;1289;53.488;10.006;2023-11-18T15:05:12;8.73;;;7.93;;
2558;SDS011;1289;53.488;10.006;2023-11-18T15:07:43;10.27;;;9.20;;
2558;SDS011;1289;53.488;10.006;2023-11-18T15:10:10;10.57;;;8.80;;